createdAt,value
2019-05-04T00:00:36.948Z,99.90
2019-05-04T00:03:09.769Z,99.90
2019-05-04T00:05:44.379Z,99.90
2019-05-04T00:08:14.645Z,99.90
2019-05-04T00:10:44.932Z,99.90
2019-05-04T00:13:15.372Z,99.90
2019-05-04T00:15:45.070Z,99.90
2019-05-04T00:18:15.335Z,99.90
2019-05-04T00:20:53.070Z,99.90
2019-05-04T00:23:16.069Z,99.90
2019-05-04T00:25:45.598Z,99.90
2019-05-04T00:28:15.507Z,99.90
2019-05-04T00:30:46.707Z,99.90
2019-05-04T00:33:54.563Z,99.90
2019-05-04T00:36:36.968Z,99.90
2019-05-04T00:39:17.757Z,99.90
2019-05-04T00:41:49.238Z,99.90
2019-05-04T00:44:18.839Z,99.90
2019-05-04T00:46:48.291Z,99.90
2019-05-04T00:49:17.727Z,99.90
2019-05-04T00:51:47.221Z,99.90
2019-05-04T00:54:16.749Z,99.90
2019-05-04T00:56:48.197Z,99.90
2019-05-04T00:59:25.849Z,99.90
2019-05-04T01:02:32.920Z,99.90
2019-05-04T01:05:01.466Z,99.90
2019-05-04T01:07:30.929Z,99.90
2019-05-04T01:10:00.445Z,99.90
2019-05-04T01:12:29.927Z,99.90
2019-05-04T01:14:59.444Z,99.90
2019-05-04T01:17:30.310Z,99.90
2019-05-04T01:19:59.852Z,99.90
2019-05-04T01:22:29.377Z,99.90
2019-05-04T01:24:58.988Z,99.90
2019-05-04T01:27:28.487Z,99.90
2019-05-04T01:29:57.979Z,99.90
2019-05-04T01:32:27.509Z,99.90
2019-05-04T01:35:00.515Z,99.90
2019-05-04T01:38:00.785Z,99.90
2019-05-04T01:40:44.883Z,99.90
2019-05-04T01:43:15.030Z,99.90
2019-05-04T01:45:45.040Z,99.90
2019-05-04T01:48:15.226Z,99.90
2019-05-04T01:50:45.310Z,99.90
2019-05-04T01:53:32.148Z,99.90
2019-05-04T01:56:28.203Z,99.90
2019-05-04T01:59:28.671Z,99.90
2019-05-04T02:01:58.559Z,99.90
2019-05-04T02:04:28.121Z,99.90
2019-05-04T02:06:57.586Z,99.90
2019-05-04T02:09:27.127Z,99.90
2019-05-04T02:11:56.579Z,99.90
2019-05-04T02:14:26.032Z,99.90
2019-05-04T02:16:55.514Z,99.90
2019-05-04T02:19:27.774Z,99.90
2019-05-04T02:22:00.489Z,99.90
2019-05-04T02:24:31.550Z,99.90
2019-05-04T02:27:18.623Z,99.90
2019-05-04T02:30:09.989Z,99.90
2019-05-04T02:32:39.463Z,99.90
2019-05-04T02:35:08.984Z,99.90
2019-05-04T02:37:38.497Z,99.90
2019-05-04T02:40:19.983Z,99.90
2019-05-04T02:42:49.575Z,99.90
2019-05-04T02:45:19.171Z,99.90
2019-05-04T02:47:57.903Z,99.90
2019-05-04T02:50:40.606Z,99.90
2019-05-04T02:53:10.107Z,99.90
2019-05-04T02:55:39.678Z,99.90
2019-05-04T02:58:09.174Z,99.90
2019-05-04T03:00:38.711Z,99.90
2019-05-04T03:03:08.261Z,99.90
2019-05-04T03:05:37.757Z,99.90
2019-05-04T03:08:24.378Z,99.90
2019-05-04T03:10:38.431Z,99.90
2019-05-04T03:13:07.972Z,99.90
2019-05-04T03:15:37.516Z,99.90
2019-05-04T03:18:15.821Z,99.90
2019-05-04T03:21:10.729Z,99.90
2019-05-04T03:23:46.023Z,99.90
2019-05-04T03:26:15.862Z,99.90
2019-05-04T03:28:46.285Z,99.90
2019-05-04T03:31:19.203Z,99.90
2019-05-04T03:33:48.619Z,99.90
2019-05-04T03:36:23.438Z,99.90
2019-05-04T03:38:54.828Z,99.90
2019-05-04T03:41:20.724Z,99.90
2019-05-04T03:43:50.355Z,99.90
2019-05-04T03:46:42.162Z,99.90
2019-05-04T03:49:25.337Z,99.90
2019-05-04T03:51:55.119Z,99.90
2019-05-04T03:54:25.551Z,99.90
2019-05-04T03:56:56.028Z,99.90
2019-05-04T03:59:25.882Z,99.90
2019-05-04T04:01:58.152Z,99.90
2019-05-04T04:04:27.635Z,99.90
2019-05-04T04:06:57.156Z,99.90
2019-05-04T04:09:26.732Z,99.90
2019-05-04T04:11:56.231Z,99.90
2019-05-04T04:14:25.902Z,99.90
2019-05-04T04:17:15.130Z,99.90
2019-05-04T04:19:46.110Z,99.90
2019-05-04T04:22:15.997Z,99.90
2019-05-04T04:24:46.217Z,99.90
2019-05-04T04:27:20.024Z,99.90
2019-05-04T04:29:49.639Z,99.90
2019-05-04T04:32:19.248Z,99.90
2019-05-04T04:34:48.777Z,99.90
2019-05-04T04:37:18.290Z,99.90
2019-05-04T04:39:47.826Z,99.90
2019-05-04T04:42:17.303Z,99.90
2019-05-04T04:44:46.935Z,99.90
2019-05-04T04:47:16.358Z,99.90
2019-05-04T04:49:45.848Z,99.90
2019-05-04T04:52:15.553Z,99.90
2019-05-04T04:54:50.229Z,99.90
2019-05-04T04:57:46.906Z,99.90
2019-05-04T05:00:25.418Z,99.90
2019-05-04T05:02:55.121Z,99.90
2019-05-04T05:05:42.250Z,99.90
2019-05-04T05:08:16.166Z,99.90
2019-05-04T05:10:46.295Z,99.90
2019-05-04T05:13:16.198Z,99.90
2019-05-04T05:15:45.780Z,99.90
2019-05-04T05:18:15.407Z,99.90
2019-05-04T05:21:05.584Z,99.90
2019-05-04T05:23:35.095Z,99.90
2019-05-04T05:26:05.049Z,99.90
2019-05-04T05:28:34.710Z,99.90
2019-05-04T05:31:15.099Z,99.90
2019-05-04T05:33:50.127Z,99.90
2019-05-04T05:36:20.972Z,99.90
2019-05-04T05:38:56.683Z,99.90
2019-05-04T05:41:26.950Z,99.90
2019-05-04T05:43:59.322Z,99.90
2019-05-04T05:46:54.428Z,99.90
2019-05-04T05:49:30.641Z,99.90
2019-05-04T05:52:19.032Z,99.90
2019-05-04T05:55:05.136Z,99.90
2019-05-04T05:58:08.673Z,99.90
2019-05-04T06:00:55.448Z,99.90
2019-05-04T06:03:39.304Z,99.90
2019-05-04T06:06:11.601Z,99.90
2019-05-04T06:08:44.766Z,99.90
2019-05-04T06:11:15.077Z,99.90
2019-05-04T06:13:54.431Z,99.90
2019-05-04T06:16:58.463Z,99.90
2019-05-04T06:19:39.700Z,99.90
2019-05-04T06:22:25.489Z,99.90
2019-05-04T06:25:26.186Z,99.90
2019-05-04T06:28:01.789Z,99.90
2019-05-04T06:30:54.614Z,99.90
2019-05-04T06:33:26.149Z,99.90
2019-05-04T06:36:26.767Z,99.90
2019-05-04T06:39:19.970Z,99.90
2019-05-04T06:41:50.176Z,99.90
2019-05-04T06:44:28.260Z,99.90
2019-05-04T06:47:11.484Z,99.90
2019-05-04T06:49:34.633Z,99.90
2019-05-04T06:52:12.469Z,99.90
2019-05-04T06:55:15.151Z,99.90
2019-05-04T06:58:07.999Z,99.90
2019-05-04T07:00:55.137Z,99.90
2019-05-04T07:03:24.703Z,99.90
2019-05-04T07:05:55.497Z,99.90
2019-05-04T07:08:32.241Z,99.90
2019-05-04T07:11:21.421Z,99.90
2019-05-04T07:13:30.912Z,99.90
2019-05-04T07:16:02.205Z,99.90
2019-05-04T07:18:37.474Z,99.90
2019-05-04T07:21:04.869Z,99.90
2019-05-04T07:23:34.315Z,99.90
2019-05-04T07:26:06.816Z,99.90
2019-05-04T07:28:40.281Z,99.90
2019-05-04T07:31:18.846Z,99.90
2019-05-04T07:33:56.960Z,99.90
2019-05-04T07:36:40.185Z,99.90
2019-05-04T07:39:36.932Z,99.90
2019-05-04T07:42:30.027Z,99.90
2019-05-04T07:44:57.431Z,99.90
2019-05-04T07:47:30.559Z,99.90
2019-05-04T07:50:00.111Z,99.90
2019-05-04T07:52:29.662Z,99.90
2019-05-04T07:54:59.133Z,99.90
2019-05-04T07:57:29.337Z,99.90
2019-05-04T08:00:06.671Z,99.90
2019-05-04T08:02:34.578Z,99.90
2019-05-04T08:05:06.842Z,99.90
2019-05-04T08:07:39.701Z,99.90
2019-05-04T08:10:09.513Z,99.90
2019-05-04T08:13:03.614Z,99.90
2019-05-04T08:15:29.550Z,99.90
2019-05-04T08:17:58.505Z,99.90
2019-05-04T08:20:28.493Z,99.90
2019-05-04T08:23:01.230Z,99.90
2019-05-04T08:25:29.131Z,99.90
2019-05-04T08:27:58.740Z,99.90
2019-05-04T08:30:30.712Z,99.90
2019-05-04T08:33:02.264Z,99.90
2019-05-04T08:35:31.771Z,99.90
2019-05-04T08:38:02.119Z,99.90
2019-05-04T08:40:32.621Z,99.90
2019-05-04T08:43:03.944Z,99.90
2019-05-04T08:45:34.377Z,99.90
2019-05-04T08:48:06.044Z,99.90
2019-05-04T08:50:56.991Z,99.90
2019-05-04T08:53:34.992Z,99.90
2019-05-04T08:56:22.453Z,99.90
2019-05-04T08:59:06.453Z,99.90
2019-05-04T09:01:46.162Z,99.90
2019-05-04T09:04:25.219Z,99.90
2019-05-04T09:06:59.103Z,99.90
2019-05-04T09:09:21.051Z,99.90
2019-05-04T09:11:50.264Z,99.90
2019-05-04T09:14:30.060Z,99.90
2019-05-04T09:16:51.423Z,99.90
2019-05-04T09:19:21.288Z,99.90
2019-05-04T09:22:16.092Z,99.90
2019-05-04T09:24:22.078Z,99.90
2019-05-04T09:26:58.649Z,99.90
2019-05-04T09:29:30.198Z,99.90
2019-05-04T09:31:55.130Z,99.90
2019-05-04T09:34:31.355Z,99.90
2019-05-04T09:37:09.106Z,99.90
2019-05-04T09:39:37.986Z,99.90
2019-05-04T09:42:17.607Z,99.90
2019-05-04T09:44:49.646Z,99.90
2019-05-04T09:47:20.636Z,99.90
2019-05-04T09:49:49.378Z,99.90
2019-05-04T09:52:40.380Z,99.90
2019-05-04T09:55:08.617Z,99.90
2019-05-04T09:57:40.628Z,99.90
2019-05-04T10:00:10.688Z,99.70
2019-05-04T10:03:16.192Z,99.70
2019-05-04T10:05:46.723Z,99.60
2019-05-04T10:08:25.043Z,99.80
2019-05-04T10:11:05.512Z,98.40
2019-05-04T10:13:49.102Z,99.00
2019-05-04T10:16:30.640Z,98.60
2019-05-04T10:19:04.097Z,98.70
2019-05-04T10:21:34.199Z,98.80
2019-05-04T10:24:04.437Z,98.30
2019-05-04T10:26:59.260Z,96.50
2019-05-04T10:29:28.791Z,96.50
2019-05-04T10:32:05.162Z,97.70
2019-05-04T10:34:34.771Z,98.50
2019-05-04T10:37:04.526Z,99.30
2019-05-04T10:39:35.052Z,98.70
2019-05-04T10:42:04.718Z,98.50
2019-05-04T10:44:34.778Z,97.70
2019-05-04T10:47:05.544Z,97.60
2019-05-04T10:49:35.297Z,96.00
2019-05-04T10:52:05.086Z,99.90
2019-05-04T10:54:34.600Z,99.90
2019-05-04T10:57:04.852Z,99.90
2019-05-04T10:59:35.477Z,99.90
2019-05-04T11:02:05.303Z,99.90
2019-05-04T11:04:35.777Z,99.90
2019-05-04T11:07:05.612Z,99.90
2019-05-04T11:09:35.314Z,99.90
2019-05-04T11:12:05.024Z,99.90
2019-05-04T11:14:34.930Z,99.90
2019-05-04T11:17:04.712Z,99.90
2019-05-04T11:19:38.662Z,99.90
2019-05-04T11:22:08.142Z,99.90
2019-05-04T11:24:37.648Z,99.90
2019-05-04T11:27:12.897Z,99.90
2019-05-04T11:29:42.411Z,99.90
2019-05-04T11:32:13.467Z,99.90
2019-05-04T11:34:47.120Z,99.90
2019-05-04T11:37:14.219Z,99.90
2019-05-04T11:39:43.701Z,99.90
2019-05-04T11:42:13.446Z,99.90
2019-05-04T11:44:42.879Z,99.90
2019-05-04T11:47:12.392Z,99.90
2019-05-04T11:49:42.020Z,99.90
2019-05-04T11:52:11.733Z,99.90
2019-05-04T11:54:41.279Z,99.90
2019-05-04T11:57:11.133Z,99.90
2019-05-04T11:59:40.621Z,99.90
2019-05-04T12:02:11.603Z,99.90
2019-05-04T12:05:14.123Z,99.90
2019-05-04T12:08:04.309Z,99.90
2019-05-04T12:10:35.600Z,99.90
2019-05-04T12:13:05.175Z,99.90
2019-05-04T12:15:35.214Z,99.90
2019-05-04T12:18:04.762Z,99.90
2019-05-04T12:20:34.591Z,99.90
2019-05-04T12:23:04.354Z,99.90
2019-05-04T12:25:34.761Z,99.90
2019-05-04T12:28:05.045Z,99.90
2019-05-04T12:30:35.092Z,99.90
2019-05-04T12:33:05.522Z,99.90
2019-05-04T12:35:54.512Z,99.90
2019-05-04T12:38:27.499Z,99.90
2019-05-04T12:40:57.235Z,99.90
2019-05-04T12:43:26.891Z,99.90
2019-05-04T12:45:57.150Z,99.90
2019-05-04T12:48:27.303Z,99.90
2019-05-04T12:51:19.467Z,99.90
2019-05-04T12:53:49.059Z,99.90
2019-05-04T12:56:22.121Z,99.90
2019-05-04T12:58:56.649Z,99.90
2019-05-04T13:01:28.712Z,99.90
2019-05-04T13:04:02.273Z,99.90
2019-05-04T13:06:31.996Z,99.90
2019-05-04T13:09:01.550Z,99.90
2019-05-04T13:11:31.065Z,99.90
2019-05-04T13:14:14.136Z,99.90
2019-05-04T13:16:32.202Z,99.90
2019-05-04T13:19:08.703Z,99.90
2019-05-04T13:21:38.248Z,99.90
2019-05-04T13:24:07.877Z,99.90
2019-05-04T13:26:37.359Z,99.90
2019-05-04T13:29:07.177Z,99.90
2019-05-04T13:31:36.967Z,99.90
2019-05-04T13:34:08.692Z,99.90
2019-05-04T13:36:38.531Z,99.90
2019-05-04T13:39:08.872Z,99.90
2019-05-04T13:41:38.421Z,99.90
2019-05-04T13:44:07.889Z,99.90
2019-05-04T13:46:37.458Z,99.90
2019-05-04T13:49:07.455Z,99.90
2019-05-04T13:51:37.323Z,99.90
2019-05-04T13:54:11.095Z,99.90
2019-05-04T13:56:46.583Z,99.90
2019-05-04T13:59:44.327Z,99.90
2019-05-04T14:02:39.016Z,99.90
2019-05-04T14:05:08.577Z,99.90
2019-05-04T14:07:38.269Z,99.90
2019-05-04T14:10:09.160Z,99.90
2019-05-04T14:12:38.803Z,99.90
2019-05-04T14:15:08.518Z,99.90
2019-05-04T14:17:38.211Z,99.90
2019-05-04T14:20:08.159Z,99.90
2019-05-04T14:22:37.695Z,99.90
2019-05-04T14:25:07.324Z,99.90
2019-05-04T14:27:36.889Z,99.90
2019-05-04T14:30:07.063Z,99.90
2019-05-04T14:32:37.343Z,99.90
2019-05-04T14:35:07.352Z,99.90
2019-05-04T14:37:36.897Z,99.90
2019-05-04T14:40:11.500Z,99.90
2019-05-04T14:42:38.430Z,99.90
2019-05-04T14:45:25.642Z,99.90
2019-05-04T14:48:14.467Z,99.90
2019-05-04T14:50:44.541Z,99.90
2019-05-04T14:53:14.382Z,99.90
2019-05-04T14:55:46.404Z,99.90
2019-05-04T14:58:15.245Z,99.90
2019-05-04T15:00:45.662Z,99.90
2019-05-04T15:03:15.166Z,99.90
2019-05-04T15:05:45.106Z,99.90
2019-05-04T15:08:15.199Z,99.90
2019-05-04T15:10:45.160Z,99.90
2019-05-04T15:13:14.832Z,99.90
2019-05-04T15:15:44.758Z,99.90
2019-05-04T15:18:15.725Z,99.90
2019-05-04T15:20:52.993Z,99.90
2019-05-04T15:23:24.578Z,99.90
2019-05-04T15:25:55.192Z,99.90
2019-05-04T15:28:24.990Z,99.90
2019-05-04T15:30:54.573Z,99.90
2019-05-04T15:33:24.353Z,99.90
2019-05-04T15:35:54.602Z,99.90
2019-05-04T15:38:24.715Z,99.90
2019-05-04T15:40:54.679Z,99.90
2019-05-04T15:43:25.342Z,99.90
2019-05-04T15:45:55.068Z,99.90
2019-05-04T15:48:24.776Z,99.90
2019-05-04T15:51:04.495Z,99.90
2019-05-04T15:54:05.049Z,99.90
2019-05-04T15:56:47.719Z,99.90
2019-05-04T15:59:25.850Z,99.90
2019-05-04T16:01:55.455Z,99.90
2019-05-04T16:04:25.699Z,99.90
2019-05-04T16:06:55.225Z,99.90
2019-05-04T16:09:25.220Z,99.90
2019-05-04T16:11:56.635Z,99.90
2019-05-04T16:14:26.291Z,99.90
2019-05-04T16:16:56.214Z,99.90
2019-05-04T16:19:26.038Z,99.90
2019-05-04T16:22:15.162Z,99.90
2019-05-04T16:24:45.680Z,99.90
2019-05-04T16:27:20.239Z,99.90
2019-05-04T16:29:50.428Z,99.90
2019-05-04T16:32:20.081Z,99.90
2019-05-04T16:34:54.848Z,99.90
2019-05-04T16:37:29.644Z,99.90
2019-05-04T16:39:59.154Z,99.90
2019-05-04T16:42:28.694Z,99.90
2019-05-04T16:44:58.214Z,99.90
2019-05-04T16:47:27.755Z,99.90
2019-05-04T16:49:57.812Z,99.90
2019-05-04T16:52:41.221Z,99.90
2019-05-04T16:55:11.406Z,99.90
2019-05-04T16:57:40.951Z,99.90
2019-05-04T17:00:16.276Z,99.90
2019-05-04T17:03:00.616Z,99.90
2019-05-04T17:05:30.169Z,99.90
2019-05-04T17:08:00.098Z,99.90
2019-05-04T17:10:29.971Z,99.90
2019-05-04T17:12:59.852Z,99.90
2019-05-04T17:15:29.947Z,99.90
2019-05-04T17:17:59.924Z,99.90
2019-05-04T17:20:31.291Z,99.90
2019-05-04T17:23:01.115Z,99.90
2019-05-04T17:25:49.945Z,99.90
2019-05-04T17:28:24.074Z,99.90
2019-05-04T17:30:58.270Z,99.90
2019-05-04T17:33:28.896Z,99.90
2019-05-04T17:35:59.981Z,99.90
2019-05-04T17:38:31.708Z,99.90
2019-05-04T17:41:31.019Z,99.90
2019-05-04T17:44:21.105Z,99.90
2019-05-04T17:46:59.741Z,99.90
2019-05-04T17:49:33.140Z,99.90
2019-05-04T17:52:04.871Z,99.90
2019-05-04T17:54:35.219Z,99.90
2019-05-04T17:57:09.088Z,99.90
2019-05-04T18:00:15.064Z,99.90
2019-05-04T18:02:47.659Z,99.90
2019-05-04T18:05:18.516Z,99.90
2019-05-04T18:07:49.264Z,99.90
2019-05-04T18:10:22.002Z,99.90
2019-05-04T18:13:11.126Z,99.90
2019-05-04T18:16:05.450Z,99.90
2019-05-04T18:18:40.643Z,99.90
2019-05-04T18:21:10.365Z,99.90
2019-05-04T18:23:41.205Z,99.90
2019-05-04T18:26:12.073Z,99.90
2019-05-04T18:28:41.898Z,99.90
2019-05-04T18:31:11.605Z,99.90
2019-05-04T18:33:41.700Z,99.90
2019-05-04T18:36:11.212Z,99.90
2019-05-04T18:38:44.232Z,99.90
2019-05-04T18:41:15.008Z,99.90
2019-05-04T18:44:14.784Z,99.90
2019-05-04T18:47:09.551Z,99.90
2019-05-04T18:49:41.495Z,99.90
2019-05-04T18:52:56.741Z,99.90
2019-05-04T18:55:31.222Z,99.90
2019-05-04T18:59:40.018Z,99.90
2019-05-04T19:02:01.949Z,99.90
2019-05-04T19:04:50.835Z,99.90
2019-05-04T19:15:18.402Z,99.90
2019-05-04T19:17:55.372Z,99.90
2019-05-04T19:20:25.358Z,99.90
2019-05-04T19:22:56.745Z,99.90
2019-05-04T19:25:39.258Z,99.90
2019-05-04T21:03:20.687Z,99.90
2019-05-04T21:06:11.991Z,99.90
2019-05-04T21:09:11.390Z,99.90
2019-05-04T21:11:41.319Z,99.90
2019-05-04T21:14:10.930Z,99.90
2019-05-04T21:16:46.438Z,99.90
2019-05-04T21:19:35.010Z,99.90
2019-05-04T21:22:07.690Z,99.90
2019-05-04T21:24:37.177Z,99.90
2019-05-04T21:27:06.782Z,99.90
2019-05-04T21:29:36.276Z,99.90
2019-05-04T21:32:05.888Z,99.90
2019-05-04T21:34:36.751Z,99.90
2019-05-04T21:37:09.877Z,99.90
2019-05-04T21:39:40.273Z,99.90
2019-05-04T21:42:09.758Z,99.90
2019-05-04T21:44:48.777Z,99.90
2019-05-04T21:47:31.480Z,99.90
2019-05-04T21:50:24.392Z,99.90
2019-05-04T21:52:54.784Z,99.90
2019-05-04T21:55:25.423Z,99.90
2019-05-04T21:57:55.081Z,99.90
2019-05-04T22:00:45.161Z,99.90
2019-05-04T22:03:21.698Z,99.90
2019-05-04T22:05:51.337Z,99.90
2019-05-04T22:08:21.150Z,99.90
2019-05-04T22:10:52.427Z,99.90
2019-05-04T22:13:23.797Z,99.90
2019-05-04T22:15:54.363Z,99.90
2019-05-04T22:18:30.123Z,99.90
2019-05-04T22:20:56.668Z,99.90
2019-05-04T22:23:27.050Z,99.90
2019-05-04T22:25:56.710Z,99.90
2019-05-04T22:28:26.474Z,99.90
2019-05-04T22:41:54.943Z,99.90
2019-05-04T22:44:24.922Z,99.90
2019-05-04T22:46:54.687Z,99.90
2019-05-04T22:49:24.695Z,99.90
2019-05-04T22:52:11.188Z,99.90
2019-05-04T22:54:47.153Z,99.90
2019-05-04T22:57:21.607Z,99.90
2019-05-04T23:00:04.708Z,99.90
2019-05-04T23:02:37.629Z,99.90
2019-05-04T23:05:08.262Z,99.90
2019-05-04T23:07:37.824Z,99.90
2019-05-04T23:10:08.110Z,99.90
2019-05-04T23:15:46.359Z,99.90
2019-05-04T23:18:16.478Z,99.90
2019-05-04T23:20:58.119Z,99.90
2019-05-04T23:23:46.515Z,99.90
2019-05-04T23:26:34.747Z,99.90
2019-05-04T23:29:06.397Z,99.90
2019-05-04T23:31:39.397Z,99.90
2019-05-04T23:34:11.550Z,99.90
2019-05-04T23:36:43.537Z,99.90
2019-05-04T23:39:17.052Z,99.90
2019-05-04T23:41:46.336Z,99.90
2019-05-04T23:44:15.922Z,99.90
2019-05-04T23:46:55.174Z,99.90
2019-05-04T23:49:25.057Z,99.90
2019-05-04T23:52:04.689Z,99.90
2019-05-04T23:54:36.866Z,99.90
2019-05-04T23:57:09.255Z,99.90
2019-05-04T23:59:38.787Z,99.90
